sensor_id;sensor_type;location;lat;lon;timestamp;P1;durP1;ratioP1;P2;durP2;ratioP2
52284;SDS011;38238;53.304;6.606;2023-02-11T00:02:01;20.00;;;17.70;;
52284;SDS011;38238;53.304;6.606;2023-02-11T00:04:29;22.50;;;20.13;;
52284;SDS011;38238;53.304;6.606;2023-02-11T00:06:55;22.17;;;18.15;;
52284;SDS011;38238;53.304;6.606;2023-02-11T00:09:21;22.55;;;15.20;;
52284;SDS011;38238;53.304;6.606;2023-02-11T00:11:47;19.08;;;16.30;;
52284;SDS011;38238;53.304;6.606;2023-02-11T00:14:12;19.15;;;15.07;;
52284;SDS011;38238;53.304;6.606;2023-02-11T00:16:38;21.17;;;15.88;;
52284;SDS011;38238;53.304;6.606;2023-02-11T00:19:04;17.05;;;14.60;;
52284;SDS011;38238;53.304;6.606;2023-02-11T00:21:30;21.38;;;17.65;;
52284;SDS011;38238;53.304;6.606;2023-02-11T00:23:57;26.13;;;16.50;;
52284;SDS011;38238;53.304;6.606;2023-02-11T00:26:35;20.27;;;14.98;;
52284;SDS011;38238;53.304;6.606;2023-02-11T00:29:01;17.67;;;13.50;;
52284;SDS011;38238;53.304;6.606;2023-02-11T00:31:27;19.25;;;14.35;;
52284;SDS011;38238;53.304;6.606;2023-02-11T00:33:53;17.23;;;12.95;;
52284;SDS011;38238;53.304;6.606;2023-02-11T00:36:20;19.05;;;15.00;;
52284;SDS011;38238;53.304;6.606;2023-02-11T00:38:48;20.10;;;14.93;;
52284;SDS011;38238;53.304;6.606;2023-02-11T00:41:15;23.30;;;14.85;;
52284;SDS011;38238;53.304;6.606;2023-02-11T00:43:41;21.85;;;15.10;;
52284;SDS011;38238;53.304;6.606;2023-02-11T00:46:07;20.45;;;15.90;;
52284;SDS011;38238;53.304;6.606;2023-02-11T00:48:33;22.90;;;14.70;;
52284;SDS011;38238;53.304;6.606;2023-02-11T00:51:00;24.63;;;16.67;;
52284;SDS011;38238;53.304;6.606;2023-02-11T00:53:26;18.40;;;15.75;;
52284;SDS011;38238;53.304;6.606;2023-02-11T00:55:52;19.17;;;17.23;;
52284;SDS011;38238;53.304;6.606;2023-02-11T00:58:17;20.42;;;15.68;;
52284;SDS011;38238;53.304;6.606;2023-02-11T01:00:43;18.77;;;15.40;;
52284;SDS011;38238;53.304;6.606;2023-02-11T01:03:09;19.65;;;17.15;;
52284;SDS011;38238;53.304;6.606;2023-02-11T01:05:34;21.42;;;15.07;;
52284;SDS011;38238;53.304;6.606;2023-02-11T01:08:00;19.58;;;16.00;;
52284;SDS011;38238;53.304;6.606;2023-02-11T01:10:26;21.45;;;17.15;;
52284;SDS011;38238;53.304;6.606;2023-02-11T01:12:52;20.00;;;15.25;;
52284;SDS011;38238;53.304;6.606;2023-02-11T01:15:19;20.65;;;15.30;;
52284;SDS011;38238;53.304;6.606;2023-02-11T01:17:45;22.75;;;16.95;;
52284;SDS011;38238;53.304;6.606;2023-02-11T01:20:16;24.70;;;15.45;;
52284;SDS011;38238;53.304;6.606;2023-02-11T01:22:44;22.52;;;14.15;;
52284;SDS011;38238;53.304;6.606;2023-02-11T01:25:10;15.65;;;14.23;;
52284;SDS011;38238;53.304;6.606;2023-02-11T01:27:36;18.70;;;13.27;;
52284;SDS011;38238;53.304;6.606;2023-02-11T01:30:02;22.70;;;14.82;;
52284;SDS011;38238;53.304;6.606;2023-02-11T01:32:29;24.75;;;13.93;;
52284;SDS011;38238;53.304;6.606;2023-02-11T01:34:55;18.98;;;14.38;;
52284;SDS011;38238;53.304;6.606;2023-02-11T01:37:20;25.15;;;14.32;;
52284;SDS011;38238;53.304;6.606;2023-02-11T01:39:46;21.75;;;13.50;;
52284;SDS011;38238;53.304;6.606;2023-02-11T01:42:17;24.48;;;13.50;;
52284;SDS011;38238;53.304;6.606;2023-02-11T01:44:44;19.08;;;14.63;;
52284;SDS011;38238;53.304;6.606;2023-02-11T01:47:10;23.13;;;15.90;;
52284;SDS011;38238;53.304;6.606;2023-02-11T01:52:50;20.45;;;15.13;;
52284;SDS011;38238;53.304;6.606;2023-02-11T01:54:59;21.75;;;15.98;;
52284;SDS011;38238;53.304;6.606;2023-02-11T01:57:48;19.92;;;13.45;;
52284;SDS011;38238;53.304;6.606;2023-02-11T02:03:07;20.38;;;13.32;;
52284;SDS011;38238;53.304;6.606;2023-02-11T02:10:48;24.52;;;14.57;;
52284;SDS011;38238;53.304;6.606;2023-02-11T02:13:18;18.98;;;12.65;;
52284;SDS011;38238;53.304;6.606;2023-02-11T02:15:51;20.00;;;13.50;;
52284;SDS011;38238;53.304;6.606;2023-02-11T02:24:23;25.98;;;17.90;;
52284;SDS011;38238;53.304;6.606;2023-02-11T02:40:56;19.92;;;14.40;;
52284;SDS011;38238;53.304;6.606;2023-02-11T02:43:34;22.05;;;16.52;;
52284;SDS011;38238;53.304;6.606;2023-02-11T02:46:13;25.42;;;15.90;;
52284;SDS011;38238;53.304;6.606;2023-02-11T02:48:42;22.98;;;13.93;;
52284;SDS011;38238;53.304;6.606;2023-02-11T02:54:28;23.58;;;14.38;;
52284;SDS011;38238;53.304;6.606;2023-02-11T03:08:24;20.10;;;14.40;;
52284;SDS011;38238;53.304;6.606;2023-02-11T03:11:01;26.23;;;16.30;;
52284;SDS011;38238;53.304;6.606;2023-02-11T03:13:30;24.05;;;15.30;;
52284;SDS011;38238;53.304;6.606;2023-02-11T03:16:02;21.13;;;15.43;;
52284;SDS011;38238;53.304;6.606;2023-02-11T03:18:44;22.15;;;15.80;;
52284;SDS011;38238;53.304;6.606;2023-02-11T03:21:15;22.13;;;16.17;;
52284;SDS011;38238;53.304;6.606;2023-02-11T03:26:16;23.58;;;16.02;;
52284;SDS011;38238;53.304;6.606;2023-02-11T03:29:01;26.45;;;15.88;;
52284;SDS011;38238;53.304;6.606;2023-02-11T03:31:55;25.48;;;17.35;;
52284;SDS011;38238;53.304;6.606;2023-02-11T03:34:43;24.27;;;16.38;;
52284;SDS011;38238;53.304;6.606;2023-02-11T03:37:35;22.38;;;14.20;;
52284;SDS011;38238;53.304;6.606;2023-02-11T03:40:06;24.08;;;16.60;;
52284;SDS011;38238;53.304;6.606;2023-02-11T03:42:39;22.40;;;15.48;;
52284;SDS011;38238;53.304;6.606;2023-02-11T03:45:14;27.08;;;14.65;;
52284;SDS011;38238;53.304;6.606;2023-02-11T03:47:51;29.42;;;18.02;;
52284;SDS011;38238;53.304;6.606;2023-02-11T03:50:24;26.13;;;16.70;;
52284;SDS011;38238;53.304;6.606;2023-02-11T03:52:52;22.52;;;16.77;;
52284;SDS011;38238;53.304;6.606;2023-02-11T03:55:19;24.00;;;17.25;;
52284;SDS011;38238;53.304;6.606;2023-02-11T03:57:47;27.92;;;17.23;;
52284;SDS011;38238;53.304;6.606;2023-02-11T04:00:13;23.65;;;14.35;;
52284;SDS011;38238;53.304;6.606;2023-02-11T04:02:39;24.45;;;15.98;;
52284;SDS011;38238;53.304;6.606;2023-02-11T04:05:06;24.98;;;16.30;;
52284;SDS011;38238;53.304;6.606;2023-02-11T04:07:33;22.73;;;17.02;;
52284;SDS011;38238;53.304;6.606;2023-02-11T04:09:59;24.58;;;16.23;;
52284;SDS011;38238;53.304;6.606;2023-02-11T04:12:25;24.35;;;15.85;;
52284;SDS011;38238;53.304;6.606;2023-02-11T04:14:51;24.08;;;16.75;;
52284;SDS011;38238;53.304;6.606;2023-02-11T04:17:16;22.42;;;16.65;;
52284;SDS011;38238;53.304;6.606;2023-02-11T04:19:42;27.83;;;16.55;;
52284;SDS011;38238;53.304;6.606;2023-02-11T04:22:08;28.08;;;16.52;;
52284;SDS011;38238;53.304;6.606;2023-02-11T04:24:34;22.58;;;17.83;;
52284;SDS011;38238;53.304;6.606;2023-02-11T04:27:00;26.02;;;16.25;;
52284;SDS011;38238;53.304;6.606;2023-02-11T04:29:26;25.80;;;15.55;;
52284;SDS011;38238;53.304;6.606;2023-02-11T04:31:52;25.65;;;15.70;;
52284;SDS011;38238;53.304;6.606;2023-02-11T04:34:19;26.27;;;19.55;;
52284;SDS011;38238;53.304;6.606;2023-02-11T04:36:45;23.52;;;16.48;;
52284;SDS011;38238;53.304;6.606;2023-02-11T04:39:10;26.83;;;16.88;;
52284;SDS011;38238;53.304;6.606;2023-02-11T04:41:36;27.45;;;16.23;;
52284;SDS011;38238;53.304;6.606;2023-02-11T04:44:02;28.92;;;18.60;;
52284;SDS011;38238;53.304;6.606;2023-02-11T04:46:28;28.25;;;18.02;;
52284;SDS011;38238;53.304;6.606;2023-02-11T04:48:53;23.40;;;19.33;;
52284;SDS011;38238;53.304;6.606;2023-02-11T04:51:21;21.58;;;15.77;;
52284;SDS011;38238;53.304;6.606;2023-02-11T04:53:46;24.17;;;17.58;;
52284;SDS011;38238;53.304;6.606;2023-02-11T04:56:12;24.55;;;16.38;;
52284;SDS011;38238;53.304;6.606;2023-02-11T04:58:38;28.40;;;17.38;;
52284;SDS011;38238;53.304;6.606;2023-02-11T05:01:12;24.05;;;20.23;;
52284;SDS011;38238;53.304;6.606;2023-02-11T05:03:39;28.92;;;20.05;;
52284;SDS011;38238;53.304;6.606;2023-02-11T05:06:05;23.02;;;17.27;;
52284;SDS011;38238;53.304;6.606;2023-02-11T05:08:32;24.73;;;15.52;;
52284;SDS011;38238;53.304;6.606;2023-02-11T05:10:58;25.90;;;17.73;;
52284;SDS011;38238;53.304;6.606;2023-02-11T05:13:23;28.15;;;17.40;;
52284;SDS011;38238;53.304;6.606;2023-02-11T05:15:49;24.77;;;18.33;;
52284;SDS011;38238;53.304;6.606;2023-02-11T05:18:15;28.40;;;16.42;;
52284;SDS011;38238;53.304;6.606;2023-02-11T05:20:41;22.52;;;17.65;;
52284;SDS011;38238;53.304;6.606;2023-02-11T05:23:07;25.80;;;16.20;;
52284;SDS011;38238;53.304;6.606;2023-02-11T05:25:33;24.55;;;17.38;;
52284;SDS011;38238;53.304;6.606;2023-02-11T05:27:59;23.85;;;16.23;;
52284;SDS011;38238;53.304;6.606;2023-02-11T05:30:25;20.20;;;14.45;;
52284;SDS011;38238;53.304;6.606;2023-02-11T05:32:51;28.90;;;16.08;;
52284;SDS011;38238;53.304;6.606;2023-02-11T05:35:17;21.80;;;16.10;;
52284;SDS011;38238;53.304;6.606;2023-02-11T05:37:43;20.88;;;16.17;;
52284;SDS011;38238;53.304;6.606;2023-02-11T05:40:09;22.23;;;16.60;;
52284;SDS011;38238;53.304;6.606;2023-02-11T05:42:35;24.33;;;18.48;;
52284;SDS011;38238;53.304;6.606;2023-02-11T05:45:01;23.02;;;16.38;;
52284;SDS011;38238;53.304;6.606;2023-02-11T05:47:26;27.40;;;18.48;;
52284;SDS011;38238;53.304;6.606;2023-02-11T05:49:52;24.10;;;15.68;;
52284;SDS011;38238;53.304;6.606;2023-02-11T05:52:21;22.92;;;16.40;;
52284;SDS011;38238;53.304;6.606;2023-02-11T05:54:48;28.50;;;17.90;;
52284;SDS011;38238;53.304;6.606;2023-02-11T05:57:15;27.08;;;17.55;;
52284;SDS011;38238;53.304;6.606;2023-02-11T05:59:41;22.73;;;16.40;;
52284;SDS011;38238;53.304;6.606;2023-02-11T06:02:07;21.40;;;16.13;;
52284;SDS011;38238;53.304;6.606;2023-02-11T06:04:33;24.50;;;18.38;;
52284;SDS011;38238;53.304;6.606;2023-02-11T06:06:59;29.40;;;16.73;;
52284;SDS011;38238;53.304;6.606;2023-02-11T06:09:25;23.85;;;18.17;;
52284;SDS011;38238;53.304;6.606;2023-02-11T06:11:51;22.75;;;16.65;;
52284;SDS011;38238;53.304;6.606;2023-02-11T06:14:17;21.60;;;14.32;;
52284;SDS011;38238;53.304;6.606;2023-02-11T06:16:43;21.80;;;15.63;;
52284;SDS011;38238;53.304;6.606;2023-02-11T06:19:09;23.50;;;15.38;;
52284;SDS011;38238;53.304;6.606;2023-02-11T06:21:36;26.85;;;15.85;;
52284;SDS011;38238;53.304;6.606;2023-02-11T06:24:02;28.85;;;16.60;;
52284;SDS011;38238;53.304;6.606;2023-02-11T06:26:28;21.48;;;14.93;;
52284;SDS011;38238;53.304;6.606;2023-02-11T06:28:54;28.45;;;15.25;;
52284;SDS011;38238;53.304;6.606;2023-02-11T06:31:20;27.27;;;16.25;;
52284;SDS011;38238;53.304;6.606;2023-02-11T06:33:45;22.42;;;15.57;;
52284;SDS011;38238;53.304;6.606;2023-02-11T06:36:18;28.15;;;16.45;;
52284;SDS011;38238;53.304;6.606;2023-02-11T06:38:44;24.05;;;16.05;;
52284;SDS011;38238;53.304;6.606;2023-02-11T06:41:11;19.13;;;15.15;;
52284;SDS011;38238;53.304;6.606;2023-02-11T06:43:38;25.55;;;15.63;;
52284;SDS011;38238;53.304;6.606;2023-02-11T06:46:04;19.17;;;13.95;;
52284;SDS011;38238;53.304;6.606;2023-02-11T06:48:29;24.08;;;17.60;;
52284;SDS011;38238;53.304;6.606;2023-02-11T06:50:55;19.70;;;12.68;;
52284;SDS011;38238;53.304;6.606;2023-02-11T06:53:21;27.05;;;14.98;;
52284;SDS011;38238;53.304;6.606;2023-02-11T06:55:47;25.95;;;17.52;;
52284;SDS011;38238;53.304;6.606;2023-02-11T06:58:12;22.95;;;13.68;;
52284;SDS011;38238;53.304;6.606;2023-02-11T07:00:38;27.00;;;17.15;;
52284;SDS011;38238;53.304;6.606;2023-02-11T07:03:04;25.90;;;15.57;;
52284;SDS011;38238;53.304;6.606;2023-02-11T07:05:30;24.88;;;15.98;;
52284;SDS011;38238;53.304;6.606;2023-02-11T07:07:55;22.25;;;13.93;;
52284;SDS011;38238;53.304;6.606;2023-02-11T07:10:21;27.35;;;16.02;;
52284;SDS011;38238;53.304;6.606;2023-02-11T07:12:47;21.92;;;15.55;;
52284;SDS011;38238;53.304;6.606;2023-02-11T07:15:13;24.42;;;14.85;;
52284;SDS011;38238;53.304;6.606;2023-02-11T07:17:38;34.15;;;16.75;;
52284;SDS011;38238;53.304;6.606;2023-02-11T07:20:04;23.65;;;15.45;;
52284;SDS011;38238;53.304;6.606;2023-02-11T07:22:30;28.13;;;15.82;;
52284;SDS011;38238;53.304;6.606;2023-02-11T07:24:57;25.42;;;16.30;;
52284;SDS011;38238;53.304;6.606;2023-02-11T07:27:23;27.25;;;15.63;;
52284;SDS011;38238;53.304;6.606;2023-02-11T07:29:49;27.17;;;16.15;;
52284;SDS011;38238;53.304;6.606;2023-02-11T07:32:14;24.88;;;16.52;;
52284;SDS011;38238;53.304;6.606;2023-02-11T07:34:40;23.15;;;15.98;;
52284;SDS011;38238;53.304;6.606;2023-02-11T07:37:06;26.58;;;16.73;;
52284;SDS011;38238;53.304;6.606;2023-02-11T07:39:31;26.48;;;17.20;;
52284;SDS011;38238;53.304;6.606;2023-02-11T07:41:57;21.90;;;15.15;;
52284;SDS011;38238;53.304;6.606;2023-02-11T07:44:24;27.33;;;16.73;;
52284;SDS011;38238;53.304;6.606;2023-02-11T07:46:49;25.38;;;15.70;;
52284;SDS011;38238;53.304;6.606;2023-02-11T07:49:15;26.25;;;15.80;;
52284;SDS011;38238;53.304;6.606;2023-02-11T07:51:41;32.60;;;17.75;;
52284;SDS011;38238;53.304;6.606;2023-02-11T07:54:07;26.30;;;15.98;;
52284;SDS011;38238;53.304;6.606;2023-02-11T07:56:34;22.75;;;16.95;;
52284;SDS011;38238;53.304;6.606;2023-02-11T07:59:00;24.00;;;15.93;;
52284;SDS011;38238;53.304;6.606;2023-02-11T08:01:27;21.60;;;15.20;;
52284;SDS011;38238;53.304;6.606;2023-02-11T08:03:54;19.90;;;13.23;;
52284;SDS011;38238;53.304;6.606;2023-02-11T08:06:22;25.80;;;14.85;;
52284;SDS011;38238;53.304;6.606;2023-02-11T08:08:49;25.77;;;15.57;;
52284;SDS011;38238;53.304;6.606;2023-02-11T08:11:20;23.27;;;14.45;;
52284;SDS011;38238;53.304;6.606;2023-02-11T08:13:48;25.20;;;15.02;;
52284;SDS011;38238;53.304;6.606;2023-02-11T08:16:19;24.40;;;14.63;;
52284;SDS011;38238;53.304;6.606;2023-02-11T08:18:45;24.20;;;13.38;;
52284;SDS011;38238;53.304;6.606;2023-02-11T08:21:11;24.98;;;15.80;;
52284;SDS011;38238;53.304;6.606;2023-02-11T08:23:37;25.60;;;16.05;;
52284;SDS011;38238;53.304;6.606;2023-02-11T08:26:05;26.95;;;14.68;;
52284;SDS011;38238;53.304;6.606;2023-02-11T08:28:37;22.27;;;15.52;;
52284;SDS011;38238;53.304;6.606;2023-02-11T08:31:23;21.77;;;15.20;;
52284;SDS011;38238;53.304;6.606;2023-02-11T08:33:50;24.85;;;13.95;;
52284;SDS011;38238;53.304;6.606;2023-02-11T08:36:17;23.65;;;14.90;;
52284;SDS011;38238;53.304;6.606;2023-02-11T08:38:45;22.40;;;17.17;;
52284;SDS011;38238;53.304;6.606;2023-02-11T08:41:10;21.10;;;13.55;;
52284;SDS011;38238;53.304;6.606;2023-02-11T08:43:39;21.65;;;15.40;;
52284;SDS011;38238;53.304;6.606;2023-02-11T08:46:06;23.38;;;15.13;;
52284;SDS011;38238;53.304;6.606;2023-02-11T08:48:33;21.67;;;13.13;;
52284;SDS011;38238;53.304;6.606;2023-02-11T08:50:59;23.90;;;12.75;;
52284;SDS011;38238;53.304;6.606;2023-02-11T08:53:24;20.20;;;12.13;;
52284;SDS011;38238;53.304;6.606;2023-02-11T08:55:52;17.50;;;12.70;;
52284;SDS011;38238;53.304;6.606;2023-02-11T08:58:19;19.88;;;11.57;;
52284;SDS011;38238;53.304;6.606;2023-02-11T09:00:46;20.23;;;13.90;;
52284;SDS011;38238;53.304;6.606;2023-02-11T09:03:13;26.40;;;13.85;;
52284;SDS011;38238;53.304;6.606;2023-02-11T09:05:44;25.70;;;13.63;;
52284;SDS011;38238;53.304;6.606;2023-02-11T09:08:10;19.63;;;12.80;;
52284;SDS011;38238;53.304;6.606;2023-02-11T09:10:36;16.42;;;10.23;;
52284;SDS011;38238;53.304;6.606;2023-02-11T09:13:03;26.20;;;12.32;;
52284;SDS011;38238;53.304;6.606;2023-02-11T09:15:29;20.38;;;12.57;;
52284;SDS011;38238;53.304;6.606;2023-02-11T09:17:55;16.30;;;11.85;;
52284;SDS011;38238;53.304;6.606;2023-02-11T09:20:21;20.95;;;11.57;;
52284;SDS011;38238;53.304;6.606;2023-02-11T09:22:47;23.15;;;11.63;;
52284;SDS011;38238;53.304;6.606;2023-02-11T09:25:13;21.05;;;11.77;;
52284;SDS011;38238;53.304;6.606;2023-02-11T09:27:38;28.73;;;11.15;;
52284;SDS011;38238;53.304;6.606;2023-02-11T09:30:04;17.73;;;10.82;;
52284;SDS011;38238;53.304;6.606;2023-02-11T09:32:30;18.48;;;10.55;;
52284;SDS011;38238;53.304;6.606;2023-02-11T09:34:56;15.93;;;10.02;;
52284;SDS011;38238;53.304;6.606;2023-02-11T09:37:22;21.38;;;11.30;;
52284;SDS011;38238;53.304;6.606;2023-02-11T09:39:47;24.65;;;9.82;;
52284;SDS011;38238;53.304;6.606;2023-02-11T09:45:00;18.58;;;9.77;;
52284;SDS011;38238;53.304;6.606;2023-02-11T09:47:28;16.73;;;9.23;;
52284;SDS011;38238;53.304;6.606;2023-02-11T09:50:04;20.05;;;8.95;;
52284;SDS011;38238;53.304;6.606;2023-02-11T09:52:53;20.65;;;9.15;;
52284;SDS011;38238;53.304;6.606;2023-02-11T09:55:40;17.58;;;10.00;;
52284;SDS011;38238;53.304;6.606;2023-02-11T09:58:13;18.88;;;8.65;;
52284;SDS011;38238;53.304;6.606;2023-02-11T10:03:38;19.83;;;9.68;;
52284;SDS011;38238;53.304;6.606;2023-02-11T10:08:58;19.05;;;8.48;;
52284;SDS011;38238;53.304;6.606;2023-02-11T10:11:35;17.08;;;8.82;;
52284;SDS011;38238;53.304;6.606;2023-02-11T10:19:29;15.52;;;8.63;;
52284;SDS011;38238;53.304;6.606;2023-02-11T10:22:13;14.07;;;7.82;;
52284;SDS011;38238;53.304;6.606;2023-02-11T10:24:42;19.17;;;8.63;;
52284;SDS011;38238;53.304;6.606;2023-02-11T10:27:23;14.88;;;7.18;;
52284;SDS011;38238;53.304;6.606;2023-02-11T10:35:26;18.42;;;8.35;;
52284;SDS011;38238;53.304;6.606;2023-02-11T10:37:52;14.80;;;9.70;;
52284;SDS011;38238;53.304;6.606;2023-02-11T10:40:21;17.80;;;7.15;;
52284;SDS011;38238;53.304;6.606;2023-02-11T10:42:52;15.98;;;7.88;;
52284;SDS011;38238;53.304;6.606;2023-02-11T10:47:52;16.50;;;6.72;;
52284;SDS011;38238;53.304;6.606;2023-02-11T10:52:50;12.65;;;5.68;;
52284;SDS011;38238;53.304;6.606;2023-02-11T10:55:19;16.23;;;6.07;;
52284;SDS011;38238;53.304;6.606;2023-02-11T10:57:58;16.17;;;6.82;;
52284;SDS011;38238;53.304;6.606;2023-02-11T11:00:33;14.33;;;8.17;;
52284;SDS011;38238;53.304;6.606;2023-02-11T11:03:45;15.75;;;7.13;;
52284;SDS011;38238;53.304;6.606;2023-02-11T11:06:00;10.52;;;6.38;;
52284;SDS011;38238;53.304;6.606;2023-02-11T11:08:44;15.30;;;5.40;;
52284;SDS011;38238;53.304;6.606;2023-02-11T11:11:29;15.00;;;7.22;;
52284;SDS011;38238;53.304;6.606;2023-02-11T11:13:57;15.15;;;7.10;;
52284;SDS011;38238;53.304;6.606;2023-02-11T11:16:24;14.02;;;4.85;;
52284;SDS011;38238;53.304;6.606;2023-02-11T11:18:51;13.95;;;5.55;;
52284;SDS011;38238;53.304;6.606;2023-02-11T11:24:16;13.77;;;7.20;;
52284;SDS011;38238;53.304;6.606;2023-02-11T11:26:43;19.50;;;7.28;;
52284;SDS011;38238;53.304;6.606;2023-02-11T11:29:18;13.38;;;5.10;;
52284;SDS011;38238;53.304;6.606;2023-02-11T11:32:22;12.45;;;5.05;;
52284;SDS011;38238;53.304;6.606;2023-02-11T11:34:59;15.20;;;7.55;;
52284;SDS011;38238;53.304;6.606;2023-02-11T11:37:28;15.02;;;6.53;;
52284;SDS011;38238;53.304;6.606;2023-02-11T11:40:07;14.95;;;5.63;;
52284;SDS011;38238;53.304;6.606;2023-02-11T11:42:40;13.48;;;4.22;;
52284;SDS011;38238;53.304;6.606;2023-02-11T11:55:59;13.88;;;6.18;;
52284;SDS011;38238;53.304;6.606;2023-02-11T11:58:27;13.43;;;5.15;;
52284;SDS011;38238;53.304;6.606;2023-02-11T12:04:24;14.07;;;6.57;;
52284;SDS011;38238;53.304;6.606;2023-02-11T12:07:10;12.30;;;5.90;;
52284;SDS011;38238;53.304;6.606;2023-02-11T12:10:00;18.73;;;5.60;;
52284;SDS011;38238;53.304;6.606;2023-02-11T12:33:55;14.02;;;4.57;;
52284;SDS011;38238;53.304;6.606;2023-02-11T12:36:51;16.25;;;5.97;;
52284;SDS011;38238;53.304;6.606;2023-02-11T12:45:25;12.60;;;4.60;;
52284;SDS011;38238;53.304;6.606;2023-02-11T12:56:04;15.23;;;6.18;;
52284;SDS011;38238;53.304;6.606;2023-02-11T12:58:43;13.68;;;5.93;;
52284;SDS011;38238;53.304;6.606;2023-02-11T13:01:20;14.65;;;5.35;;
52284;SDS011;38238;53.304;6.606;2023-02-11T13:04:32;15.00;;;6.10;;
52284;SDS011;38238;53.304;6.606;2023-02-11T13:06:48;15.45;;;4.63;;
52284;SDS011;38238;53.304;6.606;2023-02-11T13:09:25;16.08;;;5.53;;
52284;SDS011;38238;53.304;6.606;2023-02-11T13:11:57;18.27;;;5.95;;
52284;SDS011;38238;53.304;6.606;2023-02-11T13:14:44;14.15;;;4.80;;
52284;SDS011;38238;53.304;6.606;2023-02-11T13:17:14;12.57;;;4.28;;
52284;SDS011;38238;53.304;6.606;2023-02-11T13:19:50;12.48;;;5.45;;
52284;SDS011;38238;53.304;6.606;2023-02-11T13:25:06;20.23;;;7.50;;
52284;SDS011;38238;53.304;6.606;2023-02-11T13:33:49;12.48;;;5.30;;
52284;SDS011;38238;53.304;6.606;2023-02-11T13:38:23;17.42;;;5.25;;
52284;SDS011;38238;53.304;6.606;2023-02-11T13:41:33;15.93;;;5.85;;
52284;SDS011;38238;53.304;6.606;2023-02-11T13:43:41;11.98;;;6.32;;
52284;SDS011;38238;53.304;6.606;2023-02-11T13:46:09;12.45;;;5.30;;
52284;SDS011;38238;53.304;6.606;2023-02-11T13:48:47;16.05;;;6.00;;
52284;SDS011;38238;53.304;6.606;2023-02-11T13:51:17;17.55;;;6.80;;
52284;SDS011;38238;53.304;6.606;2023-02-11T13:53:58;18.40;;;6.55;;
52284;SDS011;38238;53.304;6.606;2023-02-11T13:56:28;16.38;;;5.60;;
52284;SDS011;38238;53.304;6.606;2023-02-11T13:58:54;16.83;;;5.18;;
52284;SDS011;38238;53.304;6.606;2023-02-11T14:02:23;13.02;;;5.10;;
52284;SDS011;38238;53.304;6.606;2023-02-11T14:05:31;12.52;;;5.28;;
52284;SDS011;38238;53.304;6.606;2023-02-11T14:08:10;17.58;;;6.25;;
52284;SDS011;38238;53.304;6.606;2023-02-11T14:16:06;14.15;;;7.15;;
52284;SDS011;38238;53.304;6.606;2023-02-11T14:18:56;14.85;;;7.28;;
52284;SDS011;38238;53.304;6.606;2023-02-11T14:37:38;14.35;;;5.75;;
52284;SDS011;38238;53.304;6.606;2023-02-11T14:40:30;17.38;;;5.40;;
52284;SDS011;38238;53.304;6.606;2023-02-11T14:48:18;15.90;;;7.90;;
52284;SDS011;38238;53.304;6.606;2023-02-11T14:50:47;14.20;;;5.55;;
52284;SDS011;38238;53.304;6.606;2023-02-11T14:53:20;15.73;;;6.90;;
52284;SDS011;38238;53.304;6.606;2023-02-11T14:55:49;25.42;;;7.18;;
52284;SDS011;38238;53.304;6.606;2023-02-11T15:03:38;10.52;;;6.50;;
52284;SDS011;38238;53.304;6.606;2023-02-11T15:08:49;16.77;;;7.03;;
52284;SDS011;38238;53.304;6.606;2023-02-11T15:11:18;16.70;;;5.72;;
52284;SDS011;38238;53.304;6.606;2023-02-11T15:13:46;20.15;;;6.97;;
52284;SDS011;38238;53.304;6.606;2023-02-11T15:16:20;18.00;;;6.15;;
52284;SDS011;38238;53.304;6.606;2023-02-11T15:18:49;19.05;;;5.70;;
52284;SDS011;38238;53.304;6.606;2023-02-11T15:21:24;14.63;;;5.13;;
52284;SDS011;38238;53.304;6.606;2023-02-11T15:24:04;10.07;;;5.43;;
52284;SDS011;38238;53.304;6.606;2023-02-11T15:26:54;13.55;;;6.43;;
52284;SDS011;38238;53.304;6.606;2023-02-11T15:32:17;13.82;;;5.90;;
52284;SDS011;38238;53.304;6.606;2023-02-11T15:34:43;25.73;;;7.20;;
52284;SDS011;38238;53.304;6.606;2023-02-11T15:37:23;16.33;;;7.03;;
52284;SDS011;38238;53.304;6.606;2023-02-11T15:39:52;14.80;;;5.90;;
52284;SDS011;38238;53.304;6.606;2023-02-11T15:47:32;15.23;;;6.93;;
52284;SDS011;38238;53.304;6.606;2023-02-11T15:49:59;15.32;;;5.35;;
52284;SDS011;38238;53.304;6.606;2023-02-11T15:52:25;14.32;;;7.25;;
52284;SDS011;38238;53.304;6.606;2023-02-11T15:54:52;15.55;;;6.97;;
52284;SDS011;38238;53.304;6.606;2023-02-11T15:57:20;12.93;;;6.25;;
52284;SDS011;38238;53.304;6.606;2023-02-11T15:59:48;13.75;;;6.22;;
52284;SDS011;38238;53.304;6.606;2023-02-11T16:04:56;14.82;;;6.03;;
52284;SDS011;38238;53.304;6.606;2023-02-11T16:07:37;13.90;;;7.65;;
52284;SDS011;38238;53.304;6.606;2023-02-11T16:10:22;14.40;;;6.30;;
52284;SDS011;38238;53.304;6.606;2023-02-11T16:13:01;17.13;;;7.95;;
52284;SDS011;38238;53.304;6.606;2023-02-11T16:21:04;16.67;;;6.30;;
52284;SDS011;38238;53.304;6.606;2023-02-11T16:23:35;12.80;;;5.93;;
52284;SDS011;38238;53.304;6.606;2023-02-11T16:26:09;12.77;;;5.88;;
52284;SDS011;38238;53.304;6.606;2023-02-11T16:28:44;16.83;;;6.82;;
52284;SDS011;38238;53.304;6.606;2023-02-11T16:31:10;17.15;;;6.60;;
52284;SDS011;38238;53.304;6.606;2023-02-11T16:33:37;22.85;;;5.85;;
52284;SDS011;38238;53.304;6.606;2023-02-11T16:36:12;15.60;;;5.70;;
52284;SDS011;38238;53.304;6.606;2023-02-11T16:38:41;16.88;;;6.35;;
52284;SDS011;38238;53.304;6.606;2023-02-11T16:41:07;15.43;;;6.80;;
52284;SDS011;38238;53.304;6.606;2023-02-11T16:43:36;17.00;;;6.35;;
52284;SDS011;38238;53.304;6.606;2023-02-11T16:46:01;19.02;;;6.35;;
52284;SDS011;38238;53.304;6.606;2023-02-11T16:48:28;15.48;;;7.30;;
52284;SDS011;38238;53.304;6.606;2023-02-11T16:50:54;18.85;;;6.65;;
52284;SDS011;38238;53.304;6.606;2023-02-11T16:53:21;20.02;;;7.22;;
52284;SDS011;38238;53.304;6.606;2023-02-11T16:55:49;16.20;;;6.65;;
52284;SDS011;38238;53.304;6.606;2023-02-11T16:58:15;17.30;;;6.50;;
52284;SDS011;38238;53.304;6.606;2023-02-11T17:00:41;16.42;;;6.10;;
52284;SDS011;38238;53.304;6.606;2023-02-11T17:03:10;12.73;;;5.57;;
52284;SDS011;38238;53.304;6.606;2023-02-11T17:05:46;15.00;;;6.63;;
52284;SDS011;38238;53.304;6.606;2023-02-11T17:08:12;13.73;;;6.15;;
52284;SDS011;38238;53.304;6.606;2023-02-11T17:10:38;14.35;;;6.15;;
52284;SDS011;38238;53.304;6.606;2023-02-11T17:13:04;18.65;;;6.93;;
52284;SDS011;38238;53.304;6.606;2023-02-11T17:15:30;18.23;;;7.43;;
52284;SDS011;38238;53.304;6.606;2023-02-11T17:17:56;17.00;;;9.18;;
52284;SDS011;38238;53.304;6.606;2023-02-11T17:20:22;18.33;;;7.80;;
52284;SDS011;38238;53.304;6.606;2023-02-11T17:22:48;15.15;;;6.97;;
52284;SDS011;38238;53.304;6.606;2023-02-11T17:25:14;16.85;;;6.95;;
52284;SDS011;38238;53.304;6.606;2023-02-11T17:27:40;14.13;;;6.07;;
52284;SDS011;38238;53.304;6.606;2023-02-11T17:30:06;12.88;;;6.28;;
52284;SDS011;38238;53.304;6.606;2023-02-11T17:32:33;13.65;;;6.30;;
52284;SDS011;38238;53.304;6.606;2023-02-11T17:34:58;16.52;;;6.63;;
52284;SDS011;38238;53.304;6.606;2023-02-11T17:37:24;13.57;;;6.65;;
52284;SDS011;38238;53.304;6.606;2023-02-11T17:39:50;15.27;;;6.32;;
52284;SDS011;38238;53.304;6.606;2023-02-11T17:42:15;16.08;;;6.80;;
52284;SDS011;38238;53.304;6.606;2023-02-11T17:44:43;18.98;;;9.05;;
52284;SDS011;38238;53.304;6.606;2023-02-11T17:47:10;17.70;;;10.95;;
52284;SDS011;38238;53.304;6.606;2023-02-11T17:49:36;19.92;;;9.18;;